createdAt,value
2024-03-16T00:01:22.438Z,94570.34
2024-03-16T00:03:50.275Z,94587.34
2024-03-16T00:10:22.656Z,94591.28
2024-03-16T00:12:49.911Z,94589.59
2024-03-16T00:15:17.137Z,94593.50
2024-03-16T00:17:44.364Z,94589.47
2024-03-16T00:20:12.925Z,94580.63
2024-03-16T00:22:40.820Z,94589.63
2024-03-16T00:25:07.964Z,94583.66
2024-03-16T00:27:34.891Z,94583.75
2024-03-16T00:30:02.922Z,94579.81
2024-03-16T00:32:29.840Z,94581.72
2024-03-16T00:34:56.977Z,94577.75
2024-03-16T00:37:24.483Z,94583.56
2024-03-16T00:39:52.602Z,94582.03
2024-03-16T00:46:06.516Z,94577.28
2024-03-16T00:48:33.393Z,94574.94
2024-03-16T00:51:00.410Z,94574.28
2024-03-16T00:53:28.241Z,94573.13
2024-03-16T00:55:56.269Z,94570.16
2024-03-16T00:58:23.931Z,94574.16
2024-03-16T01:00:50.837Z,94576.56
2024-03-16T01:03:18.925Z,94576.78
2024-03-16T01:05:51.907Z,94569.97
2024-03-16T01:08:18.789Z,94579.28
2024-03-16T01:10:45.681Z,94580.78
2024-03-16T01:13:12.837Z,94575.19
2024-03-16T01:15:39.791Z,94572.84
2024-03-16T01:18:06.620Z,94572.22
2024-03-16T01:20:56.805Z,94571.44
2024-03-16T01:23:24.181Z,94573.34
2024-03-16T01:25:52.595Z,94581.81
2024-03-16T01:28:21.127Z,94572.94
2024-03-16T01:30:48.121Z,94563.56
2024-03-16T01:33:16.430Z,94580.22
2024-03-16T01:35:43.355Z,94579.53
2024-03-16T01:38:10.305Z,94582.34
2024-03-16T01:40:37.341Z,94591.03
2024-03-16T01:43:05.286Z,94598.28
2024-03-16T01:45:34.718Z,94606.25
2024-03-16T01:48:02.540Z,94607.56
2024-03-16T01:50:30.148Z,94610.19
2024-03-16T01:52:56.973Z,94608.53
2024-03-16T01:55:23.896Z,94608.66
2024-03-16T01:57:52.130Z,94603.34
2024-03-16T02:00:18.957Z,94602.00
2024-03-16T02:02:47.215Z,94589.38
2024-03-16T02:05:13.989Z,94602.47
2024-03-16T02:07:41.379Z,94601.34
2024-03-16T02:10:09.475Z,94606.91
2024-03-16T02:12:36.637Z,94613.91
2024-03-16T02:18:29.474Z,94613.97
2024-03-16T02:20:57.034Z,94613.34
2024-03-16T02:23:24.127Z,94609.75
2024-03-16T02:25:51.450Z,94621.56
2024-03-16T02:28:18.573Z,94615.06
2024-03-16T02:30:46.031Z,94618.88
2024-03-16T02:33:12.845Z,94619.22
2024-03-16T02:35:40.130Z,94615.75
2024-03-16T02:38:06.963Z,94615.69
2024-03-16T02:40:33.756Z,94624.91
2024-03-16T02:43:00.892Z,94623.94
2024-03-16T02:45:27.713Z,94616.03
2024-03-16T02:47:54.860Z,94616.25
2024-03-16T02:50:23.194Z,94621.19
2024-03-16T02:52:50.047Z,94622.22
2024-03-16T02:55:16.851Z,94614.75
2024-03-16T02:57:44.238Z,94609.81
2024-03-16T03:00:11.620Z,94621.91
2024-03-16T03:02:39.914Z,94618.31
2024-03-16T03:05:06.826Z,94618.97
2024-03-16T03:07:34.089Z,94627.59
2024-03-16T03:10:01.023Z,94631.28
2024-03-16T03:12:28.028Z,94636.00
2024-03-16T03:14:55.240Z,94635.28
2024-03-16T03:17:22.505Z,94634.88
2024-03-16T03:19:49.346Z,94636.31
2024-03-16T03:22:16.624Z,94642.63
2024-03-16T03:24:54.551Z,94635.41
2024-03-16T03:27:21.295Z,94641.84
2024-03-16T03:29:48.260Z,94644.00
2024-03-16T03:32:17.857Z,94650.56
2024-03-16T03:34:44.723Z,94648.16
2024-03-16T03:37:11.662Z,94650.97
2024-03-16T03:39:38.853Z,94649.44
2024-03-16T03:42:05.747Z,94662.75
2024-03-16T03:44:32.552Z,94650.00
2024-03-16T03:46:59.362Z,94650.69
2024-03-16T03:49:26.220Z,94658.00
2024-03-16T03:51:55.286Z,94661.72
2024-03-16T03:54:22.681Z,94671.41
2024-03-16T03:56:49.496Z,94670.78
2024-03-16T03:59:16.384Z,94670.59
2024-03-16T04:01:43.595Z,94675.84
2024-03-16T04:04:10.954Z,94683.72
2024-03-16T04:06:38.479Z,94677.69
2024-03-16T04:09:08.075Z,94682.53
2024-03-16T04:11:34.915Z,94683.03
2024-03-16T04:14:15.474Z,94681.16
2024-03-16T04:16:48.010Z,94685.19
2024-03-16T04:19:32.221Z,94689.56
2024-03-16T04:21:59.079Z,94690.19
2024-03-16T04:24:26.483Z,94693.59
2024-03-16T04:26:54.004Z,94702.94
2024-03-16T04:29:20.744Z,94710.53
2024-03-16T04:31:47.591Z,94714.13
2024-03-16T04:34:16.028Z,94713.50
2024-03-16T04:36:42.965Z,94716.59
2024-03-16T04:39:09.743Z,94716.84
2024-03-16T04:41:37.468Z,94716.28
2024-03-16T04:44:04.345Z,94716.59
2024-03-16T04:46:32.355Z,94712.56
2024-03-16T04:48:59.378Z,94714.28
2024-03-16T04:51:26.381Z,94715.69
2024-03-16T04:53:54.352Z,94734.81
2024-03-16T04:56:21.605Z,94715.97
2024-03-16T04:58:49.420Z,94728.44
2024-03-16T05:01:17.190Z,94731.41
2024-03-16T05:03:44.070Z,94729.22
2024-03-16T05:06:10.864Z,94731.53
2024-03-16T05:12:31.390Z,94743.84
2024-03-16T05:14:58.266Z,94741.97
2024-03-16T05:17:25.454Z,94749.34
2024-03-16T05:19:52.693Z,94748.03
2024-03-16T05:22:19.925Z,94751.13
2024-03-16T05:24:47.816Z,94753.34
2024-03-16T05:27:15.922Z,94760.94
2024-03-16T05:29:42.720Z,94751.78
2024-03-16T05:32:12.241Z,94762.03
2024-03-16T05:34:41.949Z,94760.59
2024-03-16T05:37:09.912Z,94768.09
2024-03-16T05:39:36.791Z,94772.00
2024-03-16T05:42:04.243Z,94774.66
2024-03-16T05:44:32.108Z,94776.66
2024-03-16T05:47:00.215Z,94781.00
2024-03-16T05:49:28.134Z,94772.72
2024-03-16T05:51:56.562Z,94770.88
2024-03-16T05:54:25.203Z,94764.16
2024-03-16T05:56:52.035Z,94760.28
2024-03-16T05:59:19.208Z,94770.13
2024-03-16T06:01:46.152Z,94773.31
2024-03-16T06:04:15.819Z,94772.16
2024-03-16T06:06:42.721Z,94787.22
2024-03-16T06:09:10.017Z,94792.41
2024-03-16T06:11:36.914Z,94789.34
2024-03-16T06:14:05.098Z,94794.97
2024-03-16T06:16:31.869Z,94791.88
2024-03-16T06:19:00.062Z,94798.00
2024-03-16T06:21:27.212Z,94801.81
2024-03-16T06:23:54.688Z,94801.50
2024-03-16T06:26:21.822Z,94797.63
2024-03-16T06:28:50.153Z,94800.56
2024-03-16T06:31:18.078Z,94810.44
2024-03-16T06:33:44.990Z,94816.50
2024-03-16T06:36:12.747Z,94821.19
2024-03-16T06:38:40.613Z,94812.78
2024-03-16T06:41:07.772Z,94824.91
2024-03-16T06:43:34.524Z,94830.03
2024-03-16T06:46:04.332Z,94831.47
2024-03-16T06:48:31.200Z,94835.75
2024-03-16T06:50:58.034Z,94832.38
2024-03-16T06:53:25.127Z,94825.22
2024-03-16T06:55:52.283Z,94829.88
2024-03-16T06:58:25.022Z,94822.09
2024-03-16T07:00:51.898Z,94826.47
2024-03-16T07:03:19.221Z,94819.59
2024-03-16T07:05:45.968Z,94822.69
2024-03-16T07:08:12.784Z,94826.31
2024-03-16T07:10:40.920Z,94824.28
2024-03-16T07:13:08.252Z,94828.94
2024-03-16T07:15:35.187Z,94837.06
2024-03-16T07:18:02.876Z,94845.63
2024-03-16T07:20:29.696Z,94844.03
2024-03-16T07:22:56.570Z,94844.00
2024-03-16T07:25:23.861Z,94850.78
2024-03-16T07:27:50.954Z,94856.09
2024-03-16T07:30:18.160Z,94853.13
2024-03-16T07:32:44.933Z,94854.78
2024-03-16T07:35:14.815Z,94858.72
2024-03-16T07:37:41.899Z,94862.94
2024-03-16T07:40:13.833Z,94859.84
2024-03-16T07:42:41.724Z,94877.31
2024-03-16T07:45:11.579Z,94873.22
2024-03-16T07:47:38.500Z,94882.25
2024-03-16T07:50:06.360Z,94888.06
2024-03-16T07:52:33.743Z,94891.41
2024-03-16T07:55:00.686Z,94890.09
2024-03-16T07:57:27.931Z,94888.22
2024-03-16T08:03:22.466Z,94896.84
2024-03-16T08:05:52.952Z,94896.25
2024-03-16T08:12:25.681Z,94894.84
2024-03-16T08:14:52.917Z,94904.56
2024-03-16T08:17:21.185Z,94905.06
2024-03-16T08:19:48.200Z,94897.50
2024-03-16T08:22:16.889Z,94905.38
2024-03-16T08:24:43.703Z,94909.63
2024-03-16T08:27:11.508Z,94910.56
2024-03-16T08:29:38.438Z,94910.84
2024-03-16T08:32:05.240Z,94905.13
2024-03-16T08:34:32.205Z,94908.25
2024-03-16T08:37:01.941Z,94918.16
2024-03-16T08:39:28.803Z,94906.00
2024-03-16T08:41:57.285Z,94913.47
2024-03-16T08:44:24.115Z,94907.88
2024-03-16T08:46:51.254Z,94912.25
2024-03-16T08:49:18.815Z,94923.00
2024-03-16T08:51:48.274Z,94935.78
2024-03-16T08:54:15.751Z,94930.03
2024-03-16T08:56:43.314Z,94925.06
2024-03-16T08:59:10.452Z,94927.22
2024-03-16T09:01:40.243Z,94928.75
2024-03-16T09:04:07.367Z,94919.66
2024-03-16T09:06:34.207Z,94925.53
2024-03-16T09:09:04.518Z,94930.41
2024-03-16T09:11:32.766Z,94930.34
2024-03-16T09:14:02.308Z,94939.78
2024-03-16T09:16:29.252Z,94948.09
2024-03-16T09:18:58.946Z,94949.78
2024-03-16T09:21:25.688Z,94948.91
2024-03-16T09:24:32.183Z,94953.03
2024-03-16T09:26:59.011Z,94954.69
2024-03-16T09:29:25.751Z,94962.94
2024-03-16T09:31:55.272Z,94970.16
2024-03-16T09:34:22.179Z,94969.69
2024-03-16T09:36:49.449Z,94969.38
2024-03-16T09:39:16.225Z,94971.69
2024-03-16T09:41:44.396Z,94969.38
